createdAt,value
2022-08-16T00:01:24.455Z,32.54
2022-08-16T00:03:53.154Z,32.70
2022-08-16T00:06:21.704Z,32.53
2022-08-16T00:08:52.420Z,32.63
2022-08-16T00:11:20.884Z,32.51
2022-08-16T00:13:54.276Z,32.74
2022-08-16T00:17:01.327Z,32.62
2022-08-16T00:19:13.581Z,32.47
2022-08-16T00:21:42.726Z,32.76
2022-08-16T00:24:12.227Z,32.90
2022-08-16T00:26:44.539Z,32.31
2022-08-16T00:29:16.209Z,32.82
2022-08-16T00:31:58.631Z,32.47
2022-08-16T00:34:44.672Z,32.42
2022-08-16T00:37:18.540Z,32.62
2022-08-16T00:39:57.302Z,32.74
2022-08-16T00:42:30.496Z,32.63
2022-08-16T00:45:13.927Z,32.72
2022-08-16T00:47:49.244Z,32.86
2022-08-16T00:50:18.861Z,32.80
2022-08-16T00:52:50.974Z,33.05
2022-08-16T00:55:21.910Z,33.07
2022-08-16T00:58:00.017Z,32.80
2022-08-16T01:00:32.236Z,32.65
2022-08-16T01:03:02.662Z,32.79
2022-08-16T01:05:32.968Z,33.26
2022-08-16T01:08:01.224Z,32.69
2022-08-16T01:10:33.586Z,33.12
2022-08-16T01:13:05.712Z,33.20
2022-08-16T01:15:37.468Z,33.24
2022-08-16T01:18:39.917Z,33.25
2022-08-16T01:21:06.395Z,32.68
2022-08-16T01:24:00.818Z,33.02
2022-08-16T01:26:35.577Z,33.02
2022-08-16T01:29:09.761Z,33.03
2022-08-16T01:31:42.777Z,32.87
2022-08-16T01:34:24.982Z,32.95
2022-08-16T01:36:59.566Z,33.07
2022-08-16T01:39:30.218Z,33.08
2022-08-16T01:42:12.266Z,33.50
2022-08-16T01:44:41.809Z,33.12
2022-08-16T01:47:11.569Z,33.15
2022-08-16T01:50:40.607Z,33.24
2022-08-16T01:52:30.572Z,33.26
2022-08-16T01:55:17.696Z,33.53
2022-08-16T01:57:53.281Z,33.03
2022-08-16T02:00:29.246Z,33.09
2022-08-16T02:03:00.420Z,33.22
2022-08-16T02:05:30.959Z,33.50
2022-08-16T02:08:04.863Z,33.77
2022-08-16T02:10:33.996Z,33.87
2022-08-16T02:13:05.837Z,33.60
2022-08-16T02:15:42.608Z,33.77
2022-08-16T02:18:13.870Z,33.68
2022-08-16T02:20:49.881Z,33.91
2022-08-16T02:23:23.023Z,33.92
2022-08-16T02:25:54.664Z,33.87
2022-08-16T02:28:26.848Z,33.55
2022-08-16T02:30:55.879Z,33.72
2022-08-16T02:33:44.134Z,34.10
2022-08-16T02:36:49.914Z,33.57
2022-08-16T02:39:22.370Z,33.65
2022-08-16T02:41:53.600Z,33.93
2022-08-16T02:44:26.829Z,33.45
2022-08-16T02:46:58.178Z,34.34
2022-08-16T02:49:58.108Z,34.34
2022-08-16T02:52:24.713Z,33.94
2022-08-16T02:54:59.621Z,34.09
2022-08-16T02:57:28.063Z,34.00
2022-08-16T02:59:58.552Z,33.87
2022-08-16T03:02:31.785Z,34.00
2022-08-16T03:05:05.744Z,33.91
2022-08-16T03:07:37.355Z,34.56
2022-08-16T03:10:08.643Z,33.97
2022-08-16T03:12:55.198Z,34.42
2022-08-16T03:15:29.885Z,34.14
2022-08-16T03:17:58.433Z,34.57
2022-08-16T03:20:32.536Z,34.52
2022-08-16T03:23:06.127Z,34.44
2022-08-16T03:25:43.967Z,34.58
2022-08-16T03:28:14.167Z,34.45
2022-08-16T03:30:50.523Z,34.56
2022-08-16T03:33:19.329Z,34.88
2022-08-16T03:36:29.876Z,34.59
2022-08-16T03:38:52.571Z,34.59
2022-08-16T03:41:29.593Z,34.53
2022-08-16T03:44:44.455Z,34.86
2022-08-16T03:47:10.068Z,34.90
2022-08-16T03:49:41.178Z,35.22
2022-08-16T03:52:13.472Z,34.79
2022-08-16T03:54:57.645Z,34.76
2022-08-16T03:57:31.878Z,35.15
2022-08-16T04:00:35.379Z,34.88
2022-08-16T04:03:08.567Z,34.75
2022-08-16T04:05:44.101Z,35.02
2022-08-16T04:08:23.356Z,35.31
2022-08-16T04:11:00.278Z,34.96
2022-08-16T04:13:59.092Z,35.19
2022-08-16T04:16:27.102Z,35.41
2022-08-16T04:19:05.051Z,35.51
2022-08-16T04:21:35.320Z,34.97
2022-08-16T04:24:08.069Z,35.48
2022-08-16T04:26:46.136Z,35.67
2022-08-16T04:29:24.526Z,35.22
2022-08-16T04:31:56.422Z,35.67
2022-08-16T04:34:33.061Z,35.61
2022-08-16T04:37:03.181Z,35.41
2022-08-16T04:39:47.026Z,35.39
2022-08-16T04:42:26.231Z,35.18
2022-08-16T04:44:57.778Z,35.63
2022-08-16T04:47:33.483Z,35.44
2022-08-16T04:50:11.818Z,35.67
2022-08-16T04:52:58.997Z,35.76
2022-08-16T04:55:31.957Z,35.40
2022-08-16T04:58:41.378Z,35.61
2022-08-16T05:00:58.519Z,35.93
2022-08-16T05:03:27.567Z,35.83
2022-08-16T05:06:02.236Z,35.45
2022-08-16T05:08:35.484Z,35.94
2022-08-16T05:11:10.390Z,36.02
2022-08-16T05:13:42.414Z,35.59
2022-08-16T05:16:19.750Z,36.04
2022-08-16T05:18:53.961Z,35.51
2022-08-16T05:21:35.900Z,36.08
2022-08-16T05:24:09.449Z,36.15
2022-08-16T05:26:43.072Z,35.71
2022-08-16T05:29:15.272Z,35.61
2022-08-16T05:31:58.646Z,35.83
2022-08-16T05:34:27.956Z,36.25
2022-08-16T05:36:58.679Z,35.74
2022-08-16T05:39:40.764Z,36.15
2022-08-16T05:42:10.060Z,36.29
2022-08-16T05:44:40.188Z,36.40
2022-08-16T05:47:15.290Z,36.31
2022-08-16T05:49:45.702Z,36.02
2022-08-16T05:52:21.227Z,35.75
2022-08-16T05:55:00.990Z,36.25
2022-08-16T05:57:35.482Z,35.94
2022-08-16T06:00:09.351Z,36.22
2022-08-16T06:02:41.395Z,35.95
2022-08-16T06:05:32.389Z,36.09
2022-08-16T06:08:06.598Z,35.71
2022-08-16T06:11:09.494Z,35.85
2022-08-16T06:13:32.613Z,36.18
2022-08-16T06:16:02.997Z,35.59
2022-08-16T06:18:31.441Z,36.23
2022-08-16T06:21:00.064Z,35.61
2022-08-16T06:23:32.342Z,35.62
2022-08-16T06:26:07.632Z,35.89
2022-08-16T06:28:41.894Z,36.07
2022-08-16T06:31:15.997Z,36.25
2022-08-16T06:33:47.888Z,35.68
2022-08-16T06:36:21.752Z,35.83
2022-08-16T06:39:09.013Z,35.66
2022-08-16T06:41:50.417Z,36.26
2022-08-16T06:44:37.701Z,36.30
2022-08-16T06:47:17.390Z,35.81
2022-08-16T06:49:52.837Z,35.97
2022-08-16T06:53:09.123Z,36.25
2022-08-16T06:55:18.755Z,36.49
2022-08-16T06:57:54.868Z,36.07
2022-08-16T07:00:24.772Z,36.18
2022-08-16T07:03:02.908Z,36.13
2022-08-16T07:05:51.522Z,35.99
2022-08-16T07:08:28.352Z,35.89
2022-08-16T07:10:58.833Z,35.67
2022-08-16T07:14:00.122Z,35.79
2022-08-16T07:16:21.878Z,35.31
2022-08-16T07:19:01.332Z,35.16
2022-08-16T07:21:46.445Z,34.92
2022-08-16T07:24:29.757Z,34.85
2022-08-16T07:27:08.377Z,34.57
2022-08-16T07:29:40.134Z,34.08
2022-08-16T07:32:10.490Z,34.03
2022-08-16T07:34:48.495Z,34.02
2022-08-16T07:37:23.045Z,33.67
2022-08-16T07:40:13.094Z,33.39
2022-08-16T07:42:47.627Z,33.29
2022-08-16T07:45:17.112Z,33.03
2022-08-16T07:47:51.538Z,32.81
2022-08-16T07:50:56.240Z,32.26
2022-08-16T07:53:09.061Z,32.55
2022-08-16T07:55:47.796Z,32.51
2022-08-16T07:58:35.140Z,31.94
2022-08-16T08:01:10.930Z,32.25
2022-08-16T08:03:49.348Z,31.95
2022-08-16T08:06:24.895Z,31.73
2022-08-16T08:08:57.021Z,31.65
2022-08-16T08:11:28.237Z,31.47
2022-08-16T08:14:03.665Z,31.43
2022-08-16T08:16:50.839Z,31.30
2022-08-16T08:19:26.597Z,31.00
2022-08-16T08:22:01.101Z,30.98
2022-08-16T08:24:43.832Z,30.58
2022-08-16T08:27:22.913Z,30.67
2022-08-16T08:30:43.918Z,30.69
2022-08-16T08:32:57.449Z,30.52
2022-08-16T08:35:30.827Z,30.04
2022-08-16T08:38:00.826Z,30.23
2022-08-16T08:40:31.958Z,30.31
2022-08-16T08:43:11.959Z,30.24
2022-08-16T08:45:55.798Z,29.87
2022-08-16T08:48:33.977Z,30.11
2022-08-16T08:51:10.403Z,30.34
2022-08-16T08:54:09.314Z,29.77
2022-08-16T08:56:45.703Z,29.95
2022-08-16T08:59:31.789Z,29.59
2022-08-16T09:02:03.088Z,29.57
2022-08-16T09:04:38.274Z,29.33
2022-08-16T09:07:08.045Z,29.71
2022-08-16T09:09:40.985Z,29.25
2022-08-16T09:12:30.146Z,29.47
2022-08-16T09:15:09.604Z,29.40
2022-08-16T09:17:53.417Z,29.10
2022-08-16T09:20:30.490Z,29.09
2022-08-16T09:23:03.482Z,29.14
2022-08-16T09:25:40.085Z,28.86
2022-08-16T09:29:13.782Z,28.77
2022-08-16T09:31:10.805Z,28.44
2022-08-16T09:33:41.169Z,28.49
2022-08-16T09:36:12.313Z,28.12
2022-08-16T09:38:59.650Z,28.38
2022-08-16T09:41:28.285Z,28.11
2022-08-16T09:43:59.570Z,28.46
2022-08-16T09:46:45.007Z,27.99
2022-08-16T09:49:19.786Z,28.02
2022-08-16T09:51:49.563Z,27.45
2022-08-16T09:54:20.949Z,27.33
2022-08-16T09:56:53.221Z,27.29
2022-08-16T09:59:22.946Z,27.21
2022-08-16T10:01:51.708Z,27.07
2022-08-16T10:04:30.967Z,27.59
2022-08-16T10:07:03.083Z,27.42
2022-08-16T10:09:53.518Z,27.05
2022-08-16T10:12:42.169Z,26.89
2022-08-16T10:15:15.153Z,27.16
2022-08-16T10:17:45.840Z,26.37
2022-08-16T10:20:31.841Z,26.71
2022-08-16T10:23:06.169Z,26.13
2022-08-16T10:27:03.785Z,26.29
2022-08-16T10:28:28.608Z,26.17
2022-08-16T10:30:58.792Z,26.64
2022-08-16T10:33:29.245Z,26.32
2022-08-16T10:36:03.383Z,25.99
2022-08-16T10:38:32.979Z,25.98
2022-08-16T10:41:04.749Z,26.30
2022-08-16T10:43:32.813Z,26.20
2022-08-16T10:46:01.618Z,26.06
2022-08-16T10:48:31.267Z,25.87
2022-08-16T10:51:00.928Z,26.41
2022-08-16T10:53:33.258Z,26.12
2022-08-16T10:56:02.932Z,26.13
2022-08-16T10:58:34.670Z,25.45
2022-08-16T11:03:54.226Z,25.69
2022-08-16T11:06:27.872Z,25.55
2022-08-16T11:14:34.996Z,24.84
2022-08-16T11:17:10.425Z,25.16
2022-08-16T11:22:46.944Z,24.60
2022-08-16T11:28:07.307Z,24.53
2022-08-16T11:30:39.172Z,23.80
2022-08-16T11:33:07.770Z,24.53
2022-08-16T11:35:44.082Z,24.62
2022-08-16T11:38:46.305Z,24.69
2022-08-16T11:41:04.060Z,24.52
2022-08-16T11:43:34.654Z,24.58
2022-08-16T11:46:44.546Z,24.55
2022-08-16T11:48:51.938Z,24.28
2022-08-16T11:51:19.784Z,24.20
2022-08-16T11:53:49.317Z,23.73
2022-08-16T11:56:19.069Z,23.76
2022-08-16T11:58:59.743Z,23.71
2022-08-16T12:01:29.557Z,23.55
2022-08-16T12:03:58.005Z,23.77
2022-08-16T12:06:30.830Z,23.80
2022-08-16T12:09:05.029Z,23.33
2022-08-16T12:11:34.194Z,23.74
2022-08-16T12:14:02.152Z,22.97
2022-08-16T12:16:36.002Z,23.47
2022-08-16T12:19:04.849Z,22.80
2022-08-16T12:21:35.950Z,23.24
2022-08-16T12:24:24.119Z,22.71
2022-08-16T12:26:55.323Z,22.71
2022-08-16T12:29:28.457Z,22.69
2022-08-16T12:32:01.424Z,22.82
2022-08-16T12:34:50.471Z,22.60
2022-08-16T12:37:21.381Z,22.66
2022-08-16T12:40:00.034Z,23.08
2022-08-16T12:42:35.514Z,22.92
2022-08-16T12:45:06.386Z,23.11
2022-08-16T12:48:04.878Z,22.97
2022-08-16T12:50:50.047Z,22.92
2022-08-16T12:53:20.877Z,22.37
2022-08-16T12:55:59.233Z,22.85
2022-08-16T12:58:49.052Z,22.24
2022-08-16T13:01:19.330Z,22.03
2022-08-16T13:04:08.211Z,22.57
2022-08-16T13:06:41.073Z,22.42
2022-08-16T13:09:29.128Z,22.53
2022-08-16T13:12:22.709Z,22.33
2022-08-16T13:14:56.940Z,22.85
2022-08-16T13:17:33.762Z,22.75
2022-08-16T13:20:11.000Z,22.16
2022-08-16T13:22:43.820Z,22.28
2022-08-16T13:25:18.935Z,22.47
2022-08-16T13:28:01.506Z,22.02
2022-08-16T13:30:37.247Z,22.11
2022-08-16T13:33:11.261Z,22.17
2022-08-16T13:35:43.088Z,22.50
2022-08-16T13:38:24.352Z,22.02
2022-08-16T13:40:53.085Z,22.04
2022-08-16T13:43:26.611Z,22.51
2022-08-16T13:45:55.476Z,21.87
2022-08-16T13:48:42.979Z,22.16
2022-08-16T13:51:16.715Z,21.75
2022-08-16T13:53:54.240Z,21.75
2022-08-16T13:56:38.197Z,21.72
2022-08-16T13:59:19.770Z,21.96
2022-08-16T14:01:59.838Z,21.65
2022-08-16T14:04:31.760Z,22.25
2022-08-16T14:07:03.705Z,22.07
2022-08-16T14:09:32.357Z,22.19
2022-08-16T14:12:09.512Z,21.40
2022-08-16T14:14:53.408Z,21.56
2022-08-16T14:17:24.792Z,21.42
2022-08-16T14:19:53.250Z,21.99
2022-08-16T14:22:30.251Z,21.96
2022-08-16T14:25:03.286Z,21.45
2022-08-16T14:27:31.880Z,21.51
2022-08-16T14:30:01.582Z,21.32
2022-08-16T14:32:34.032Z,21.71
2022-08-16T14:35:03.207Z,21.31
2022-08-16T14:37:32.607Z,21.33
2022-08-16T14:40:01.130Z,21.29
2022-08-16T14:42:31.548Z,21.36
2022-08-16T14:45:00.734Z,21.74
2022-08-16T14:47:31.568Z,21.74
2022-08-16T14:50:02.972Z,21.06
2022-08-16T14:55:22.536Z,21.66
2022-08-16T14:57:54.515Z,21.29
2022-08-16T15:00:33.038Z,21.06
2022-08-16T15:03:04.649Z,21.16
2022-08-16T15:05:33.063Z,21.05
2022-08-16T15:08:01.198Z,21.18
2022-08-16T15:10:32.162Z,21.61
2022-08-16T15:13:01.509Z,21.01
2022-08-16T15:15:30.479Z,20.98
2022-08-16T15:18:01.464Z,21.25
2022-08-16T15:20:33.473Z,21.05
2022-08-16T15:23:02.509Z,21.10
2022-08-16T15:25:33.114Z,21.53
2022-08-16T15:28:04.645Z,21.52
2022-08-16T15:30:57.926Z,21.26
2022-08-16T15:33:25.455Z,21.47
2022-08-16T15:35:57.912Z,21.12
2022-08-16T15:38:55.323Z,20.81
2022-08-16T15:41:30.125Z,20.78
2022-08-16T15:44:05.587Z,21.23
2022-08-16T15:46:54.677Z,21.04
2022-08-16T15:49:25.120Z,20.97
2022-08-16T15:52:05.327Z,21.38
2022-08-16T15:54:35.169Z,21.59
2022-08-16T15:57:10.882Z,21.12
2022-08-16T15:59:48.717Z,20.99
2022-08-16T16:02:29.418Z,21.44
2022-08-16T16:05:00.903Z,21.36
2022-08-16T16:07:32.186Z,21.22
2022-08-16T16:10:02.790Z,21.00
2022-08-16T16:12:51.368Z,21.06
2022-08-16T16:15:24.623Z,21.70
2022-08-16T16:17:55.322Z,21.63
2022-08-16T16:20:27.046Z,21.71
2022-08-16T16:22:59.455Z,21.54
2022-08-16T16:25:29.344Z,21.78
2022-08-16T16:27:59.581Z,21.29
2022-08-16T16:30:33.395Z,21.84
2022-08-16T16:33:15.631Z,21.83
2022-08-16T16:35:55.167Z,21.32
2022-08-16T16:38:30.956Z,21.47
2022-08-16T16:40:59.924Z,21.76
2022-08-16T16:43:31.517Z,21.74
2022-08-16T16:46:02.141Z,21.57
2022-08-16T16:48:35.349Z,21.88
2022-08-16T16:51:09.073Z,21.52
2022-08-16T16:53:41.330Z,21.95
2022-08-16T16:56:19.353Z,21.99
2022-08-16T16:59:01.153Z,21.60
2022-08-16T17:01:35.093Z,21.93
2022-08-16T17:04:27.407Z,22.17
2022-08-16T17:07:01.306Z,21.95
2022-08-16T17:09:31.148Z,22.18
2022-08-16T17:11:59.826Z,21.77
2022-08-16T17:17:17.221Z,21.92
2022-08-16T17:19:45.421Z,22.00
2022-08-16T17:22:15.546Z,21.82
2022-08-16T17:24:50.675Z,21.79
2022-08-16T17:27:32.034Z,22.28
2022-08-16T17:30:02.763Z,21.95
2022-08-16T17:32:34.267Z,22.07
2022-08-16T17:35:18.436Z,21.92
2022-08-16T17:37:51.972Z,22.31
2022-08-16T17:39:28.171Z,21.71
2022-08-16T17:40:40.538Z,21.89
2022-08-16T17:43:13.481Z,21.88
2022-08-16T17:45:42.201Z,22.33
2022-08-16T17:48:11.007Z,22.07
2022-08-16T17:50:39.564Z,22.27
2022-08-16T17:53:08.262Z,22.03
2022-08-16T17:55:39.818Z,22.18
2022-08-16T17:58:22.514Z,22.13
2022-08-16T18:00:53.011Z,22.09
2022-08-16T18:04:09.082Z,22.60
2022-08-16T18:06:13.564Z,22.05
2022-08-16T18:08:42.712Z,22.24
2022-08-16T18:11:13.482Z,22.06
2022-08-16T18:13:43.153Z,22.26
2022-08-16T18:16:11.980Z,22.21
2022-08-16T18:18:40.311Z,22.22
2022-08-16T18:21:27.152Z,22.13
2022-08-16T18:23:55.192Z,22.37
2022-08-16T18:26:24.709Z,22.35
2022-08-16T18:28:52.805Z,22.13
2022-08-16T18:31:21.117Z,22.14
2022-08-16T18:33:49.578Z,22.47
2022-08-16T18:36:23.391Z,22.59
2022-08-16T18:38:52.566Z,22.23
2022-08-16T18:41:21.597Z,22.57
2022-08-16T18:43:54.200Z,22.68
2022-08-16T18:46:42.477Z,22.33
2022-08-16T18:49:14.937Z,22.36
2022-08-16T18:51:46.467Z,22.82
2022-08-16T18:54:16.580Z,22.67
2022-08-16T18:56:55.385Z,22.68
2022-08-16T18:59:28.691Z,22.68
2022-08-16T19:02:05.185Z,22.85
2022-08-16T19:04:55.327Z,22.83
2022-08-16T19:07:22.722Z,22.68
2022-08-16T19:09:53.172Z,23.01
2022-08-16T19:12:38.322Z,23.31
2022-08-16T19:15:14.249Z,23.25
2022-08-16T19:17:42.733Z,22.96
2022-08-16T19:20:11.496Z,23.40
2022-08-16T19:23:02.340Z,23.56
2022-08-16T19:25:46.903Z,23.47
2022-08-16T19:28:49.257Z,23.59
2022-08-16T19:31:09.627Z,23.47
2022-08-16T19:33:38.077Z,23.50
2022-08-16T19:36:06.781Z,23.63
2022-08-16T19:38:36.522Z,23.66
2022-08-16T19:41:04.595Z,23.66
2022-08-16T19:43:32.791Z,23.78
2022-08-16T19:46:00.875Z,23.67
2022-08-16T19:48:33.158Z,23.82
2022-08-16T19:51:01.610Z,23.67
2022-08-16T19:53:29.811Z,23.84
2022-08-16T19:55:58.127Z,23.64
2022-08-16T19:58:26.329Z,23.84
2022-08-16T20:00:56.452Z,23.98
2022-08-16T20:03:25.439Z,24.09
2022-08-16T20:05:55.251Z,23.84
2022-08-16T20:08:23.808Z,23.93
2022-08-16T20:10:52.129Z,23.85
2022-08-16T20:13:21.655Z,23.89
2022-08-16T20:15:50.463Z,23.99
2022-08-16T20:18:25.035Z,23.71
2022-08-16T20:20:58.073Z,24.07
2022-08-16T20:23:29.361Z,24.08
2022-08-16T20:25:58.027Z,23.94
2022-08-16T20:28:40.134Z,24.11
2022-08-16T20:31:14.943Z,24.22
2022-08-16T20:33:44.010Z,24.23
2022-08-16T20:36:16.376Z,24.22
2022-08-16T20:38:47.007Z,24.50
2022-08-16T20:41:15.669Z,24.29
2022-08-16T20:43:43.637Z,24.57
2022-08-16T20:46:13.777Z,24.49
2022-08-16T20:48:41.724Z,24.70
2022-08-16T20:51:10.884Z,24.68
2022-08-16T20:53:41.131Z,24.66
2022-08-16T20:56:10.189Z,24.98
2022-08-16T20:58:38.602Z,24.87
2022-08-16T21:01:07.531Z,24.93
2022-08-16T21:03:35.970Z,25.06
2022-08-16T21:06:05.485Z,24.89
2022-08-16T21:08:52.302Z,24.85
2022-08-16T21:11:23.729Z,24.89
2022-08-16T21:13:51.690Z,25.10
2022-08-16T21:16:28.660Z,25.04
2022-08-16T21:18:56.978Z,25.03
2022-08-16T21:21:25.063Z,24.93
2022-08-16T21:24:01.901Z,25.20
2022-08-16T21:26:31.431Z,25.23
2022-08-16T21:28:59.636Z,25.29
2022-08-16T21:31:27.702Z,25.14
2022-08-16T21:33:56.161Z,25.05
2022-08-16T21:36:35.609Z,25.29
2022-08-16T21:39:06.480Z,25.30
2022-08-16T21:41:38.461Z,25.27
2022-08-16T21:44:06.591Z,25.31
2022-08-16T21:46:34.793Z,25.33
2022-08-16T21:49:04.690Z,25.25
2022-08-16T21:51:32.758Z,25.31
2022-08-16T21:54:00.730Z,25.28
2022-08-16T21:56:28.691Z,25.37
2022-08-16T21:58:58.080Z,25.31
2022-08-16T22:01:26.586Z,25.21
2022-08-16T22:04:35.514Z,25.18
2022-08-16T22:06:43.448Z,25.37
2022-08-16T22:09:12.498Z,25.28
2022-08-16T22:11:40.449Z,25.28
2022-08-16T22:14:10.696Z,25.19
2022-08-16T22:16:39.973Z,25.18
2022-08-16T22:19:07.819Z,25.31
2022-08-16T22:21:36.493Z,25.15
2022-08-16T22:24:04.814Z,25.26
2022-08-16T22:26:33.990Z,25.29
2022-08-16T22:29:02.541Z,25.31
2022-08-16T22:31:32.326Z,25.36
2022-08-16T22:34:01.910Z,25.22
2022-08-16T22:36:30.745Z,25.36
2022-08-16T22:38:59.659Z,25.30
2022-08-16T22:41:28.823Z,25.20
2022-08-16T22:43:56.908Z,25.43
2022-08-16T22:46:25.236Z,25.42
2022-08-16T22:48:54.755Z,25.30
2022-08-16T22:51:24.157Z,25.36
2022-08-16T22:53:52.650Z,25.72
2022-08-16T22:56:20.931Z,25.56
2022-08-16T22:58:49.254Z,25.45
2022-08-16T23:01:20.873Z,25.59
2022-08-16T23:03:49.002Z,25.29
2022-08-16T23:06:18.765Z,25.57
2022-08-16T23:08:46.855Z,25.72
2022-08-16T23:11:20.452Z,25.45
2022-08-16T23:13:53.802Z,25.41
2022-08-16T23:16:22.970Z,25.57
2022-08-16T23:18:53.484Z,25.46
2022-08-16T23:21:22.972Z,25.47
2022-08-16T23:23:54.661Z,25.44
2022-08-16T23:26:44.187Z,25.49
2022-08-16T23:29:15.516Z,25.77
2022-08-16T23:31:50.474Z,25.52
2022-08-16T23:34:21.542Z,25.66
2022-08-16T23:36:50.962Z,25.46
2022-08-16T23:39:19.029Z,25.60
2022-08-16T23:41:46.991Z,25.71
2022-08-16T23:44:41.976Z,25.69
2022-08-16T23:47:02.955Z,25.84
2022-08-16T23:49:57.136Z,25.66
2022-08-16T23:52:42.309Z,25.58
2022-08-16T23:55:09.201Z,25.85
2022-08-16T23:57:37.533Z,25.84
